sensor_id;sensor_type;location;lat;lon;timestamp;P1;durP1;ratioP1;P2;durP2;ratioP2
74080;SDS011;62438;52.228;6.864;2023-03-01T00:01:27;12.00;;;5.38;;
74080;SDS011;62438;52.228;6.864;2023-03-01T00:03:29;15.02;;;5.90;;
74080;SDS011;62438;52.228;6.864;2023-03-01T00:05:30;16.27;;;5.97;;
74080;SDS011;62438;52.228;6.864;2023-03-01T00:07:30;15.45;;;6.32;;
74080;SDS011;62438;52.228;6.864;2023-03-01T00:09:30;12.68;;;5.18;;
74080;SDS011;62438;52.228;6.864;2023-03-01T00:11:31;12.05;;;5.60;;
74080;SDS011;62438;52.228;6.864;2023-03-01T00:13:33;15.40;;;5.68;;
74080;SDS011;62438;52.228;6.864;2023-03-01T00:15:37;14.27;;;5.03;;
74080;SDS011;62438;52.228;6.864;2023-03-01T00:17:39;13.63;;;5.38;;
74080;SDS011;62438;52.228;6.864;2023-03-01T00:19:40;12.90;;;5.30;;
74080;SDS011;62438;52.228;6.864;2023-03-01T00:21:40;11.73;;;4.85;;
74080;SDS011;62438;52.228;6.864;2023-03-01T00:23:41;16.48;;;5.40;;
74080;SDS011;62438;52.228;6.864;2023-03-01T00:25:41;10.40;;;4.32;;
74080;SDS011;62438;52.228;6.864;2023-03-01T00:27:42;12.30;;;4.78;;
74080;SDS011;62438;52.228;6.864;2023-03-01T00:29:43;11.68;;;4.90;;
74080;SDS011;62438;52.228;6.864;2023-03-01T00:31:43;13.95;;;5.53;;
74080;SDS011;62438;52.228;6.864;2023-03-01T00:33:44;13.88;;;4.88;;
74080;SDS011;62438;52.228;6.864;2023-03-01T00:35:45;11.00;;;5.10;;
74080;SDS011;62438;52.228;6.864;2023-03-01T00:37:45;13.55;;;5.72;;
74080;SDS011;62438;52.228;6.864;2023-03-01T00:39:46;15.52;;;5.18;;
74080;SDS011;62438;52.228;6.864;2023-03-01T00:41:46;13.85;;;5.60;;
74080;SDS011;62438;52.228;6.864;2023-03-01T00:43:46;12.88;;;5.13;;
74080;SDS011;62438;52.228;6.864;2023-03-01T00:45:47;11.95;;;4.97;;
74080;SDS011;62438;52.228;6.864;2023-03-01T00:47:48;12.70;;;5.00;;
74080;SDS011;62438;52.228;6.864;2023-03-01T00:49:49;15.25;;;5.00;;
74080;SDS011;62438;52.228;6.864;2023-03-01T00:51:49;13.52;;;5.28;;
74080;SDS011;62438;52.228;6.864;2023-03-01T00:53:50;14.00;;;5.60;;
74080;SDS011;62438;52.228;6.864;2023-03-01T00:55:52;14.90;;;5.63;;
74080;SDS011;62438;52.228;6.864;2023-03-01T00:57:52;13.18;;;5.53;;
74080;SDS011;62438;52.228;6.864;2023-03-01T00:59:53;13.40;;;5.53;;
74080;SDS011;62438;52.228;6.864;2023-03-01T01:01:53;19.75;;;5.97;;
74080;SDS011;62438;52.228;6.864;2023-03-01T01:03:55;15.82;;;6.18;;
74080;SDS011;62438;52.228;6.864;2023-03-01T01:06:02;12.52;;;5.32;;
74080;SDS011;62438;52.228;6.864;2023-03-01T01:08:09;15.95;;;5.35;;
74080;SDS011;62438;52.228;6.864;2023-03-01T01:10:09;13.02;;;5.57;;
74080;SDS011;62438;52.228;6.864;2023-03-01T01:12:16;15.70;;;5.40;;
74080;SDS011;62438;52.228;6.864;2023-03-01T01:14:18;13.57;;;4.78;;
74080;SDS011;62438;52.228;6.864;2023-03-01T01:16:19;12.43;;;4.07;;
74080;SDS011;62438;52.228;6.864;2023-03-01T01:18:21;12.18;;;4.97;;
74080;SDS011;62438;52.228;6.864;2023-03-01T01:20:21;12.55;;;4.80;;
74080;SDS011;62438;52.228;6.864;2023-03-01T01:22:22;12.88;;;5.07;;
74080;SDS011;62438;52.228;6.864;2023-03-01T01:24:22;14.95;;;5.35;;
74080;SDS011;62438;52.228;6.864;2023-03-01T01:26:27;12.75;;;4.38;;
74080;SDS011;62438;52.228;6.864;2023-03-01T01:28:29;12.18;;;4.95;;
74080;SDS011;62438;52.228;6.864;2023-03-01T01:30:29;14.48;;;4.60;;
74080;SDS011;62438;52.228;6.864;2023-03-01T01:32:30;10.82;;;4.40;;
74080;SDS011;62438;52.228;6.864;2023-03-01T01:34:30;13.23;;;4.97;;
74080;SDS011;62438;52.228;6.864;2023-03-01T01:36:31;12.70;;;4.55;;
74080;SDS011;62438;52.228;6.864;2023-03-01T01:38:32;13.32;;;4.82;;
74080;SDS011;62438;52.228;6.864;2023-03-01T01:40:33;16.65;;;5.40;;
74080;SDS011;62438;52.228;6.864;2023-03-01T01:42:33;12.63;;;5.72;;
74080;SDS011;62438;52.228;6.864;2023-03-01T01:44:34;11.93;;;4.90;;
74080;SDS011;62438;52.228;6.864;2023-03-01T01:46:36;16.50;;;5.75;;
74080;SDS011;62438;52.228;6.864;2023-03-01T01:48:44;12.88;;;5.15;;
74080;SDS011;62438;52.228;6.864;2023-03-01T01:50:46;14.07;;;5.35;;
74080;SDS011;62438;52.228;6.864;2023-03-01T01:52:55;13.93;;;5.00;;
74080;SDS011;62438;52.228;6.864;2023-03-01T01:54:57;15.63;;;5.38;;
74080;SDS011;62438;52.228;6.864;2023-03-01T01:57:03;11.85;;;4.97;;
74080;SDS011;62438;52.228;6.864;2023-03-01T01:59:09;15.10;;;5.22;;
74080;SDS011;62438;52.228;6.864;2023-03-01T02:01:10;14.05;;;4.78;;
74080;SDS011;62438;52.228;6.864;2023-03-01T02:03:12;12.80;;;5.10;;
74080;SDS011;62438;52.228;6.864;2023-03-01T02:07:34;13.48;;;5.13;;
74080;SDS011;62438;52.228;6.864;2023-03-01T02:09:35;15.70;;;5.22;;
74080;SDS011;62438;52.228;6.864;2023-03-01T02:11:36;14.38;;;6.00;;
74080;SDS011;62438;52.228;6.864;2023-03-01T02:13:37;16.30;;;5.57;;
74080;SDS011;62438;52.228;6.864;2023-03-01T02:15:38;15.70;;;5.72;;
74080;SDS011;62438;52.228;6.864;2023-03-01T02:17:40;12.63;;;5.32;;
74080;SDS011;62438;52.228;6.864;2023-03-01T02:20:15;17.60;;;5.88;;
74080;SDS011;62438;52.228;6.864;2023-03-01T02:22:26;16.30;;;5.25;;
74080;SDS011;62438;52.228;6.864;2023-03-01T02:26:49;12.52;;;4.50;;
74080;SDS011;62438;52.228;6.864;2023-03-01T02:28:54;11.80;;;5.35;;
74080;SDS011;62438;52.228;6.864;2023-03-01T02:30:55;14.38;;;5.13;;
74080;SDS011;62438;52.228;6.864;2023-03-01T02:33:14;11.52;;;4.70;;
74080;SDS011;62438;52.228;6.864;2023-03-01T02:35:15;15.70;;;5.38;;
74080;SDS011;62438;52.228;6.864;2023-03-01T02:37:17;14.25;;;5.38;;
74080;SDS011;62438;52.228;6.864;2023-03-01T02:39:28;12.82;;;4.88;;
74080;SDS011;62438;52.228;6.864;2023-03-01T02:41:43;12.82;;;5.47;;
74080;SDS011;62438;52.228;6.864;2023-03-01T02:43:47;11.90;;;5.05;;
74080;SDS011;62438;52.228;6.864;2023-03-01T02:45:48;12.02;;;4.80;;
74080;SDS011;62438;52.228;6.864;2023-03-01T02:47:50;12.70;;;5.13;;
74080;SDS011;62438;52.228;6.864;2023-03-01T02:49:53;15.20;;;5.13;;
74080;SDS011;62438;52.228;6.864;2023-03-01T02:56:25;16.60;;;5.68;;
74080;SDS011;62438;52.228;6.864;2023-03-01T02:58:26;13.57;;;4.95;;
74080;SDS011;62438;52.228;6.864;2023-03-01T03:00:28;12.50;;;5.38;;
74080;SDS011;62438;52.228;6.864;2023-03-01T03:02:35;11.13;;;4.75;;
74080;SDS011;62438;52.228;6.864;2023-03-01T03:04:35;14.32;;;4.80;;
74080;SDS011;62438;52.228;6.864;2023-03-01T03:06:36;14.20;;;5.22;;
74080;SDS011;62438;52.228;6.864;2023-03-01T03:08:36;14.10;;;5.35;;
74080;SDS011;62438;52.228;6.864;2023-03-01T03:10:39;12.43;;;5.07;;
74080;SDS011;62438;52.228;6.864;2023-03-01T03:12:41;12.48;;;5.15;;
74080;SDS011;62438;52.228;6.864;2023-03-01T03:14:41;15.32;;;5.88;;
74080;SDS011;62438;52.228;6.864;2023-03-01T03:18:43;16.38;;;5.78;;
74080;SDS011;62438;52.228;6.864;2023-03-01T03:20:44;16.20;;;5.75;;
74080;SDS011;62438;52.228;6.864;2023-03-01T03:22:48;12.07;;;4.63;;
74080;SDS011;62438;52.228;6.864;2023-03-01T03:24:50;14.05;;;4.97;;
74080;SDS011;62438;52.228;6.864;2023-03-01T03:26:51;14.65;;;5.22;;
74080;SDS011;62438;52.228;6.864;2023-03-01T03:28:51;13.05;;;5.70;;
74080;SDS011;62438;52.228;6.864;2023-03-01T03:30:51;14.63;;;5.50;;
74080;SDS011;62438;52.228;6.864;2023-03-01T03:32:52;14.52;;;5.70;;
74080;SDS011;62438;52.228;6.864;2023-03-01T03:34:52;12.10;;;5.05;;
74080;SDS011;62438;52.228;6.864;2023-03-01T03:36:56;13.90;;;5.20;;
74080;SDS011;62438;52.228;6.864;2023-03-01T03:38:59;15.65;;;5.35;;
74080;SDS011;62438;52.228;6.864;2023-03-01T03:41:01;12.25;;;5.20;;
74080;SDS011;62438;52.228;6.864;2023-03-01T03:43:03;13.10;;;4.55;;
74080;SDS011;62438;52.228;6.864;2023-03-01T03:45:05;13.13;;;5.53;;
74080;SDS011;62438;52.228;6.864;2023-03-01T03:47:06;13.30;;;5.60;;
74080;SDS011;62438;52.228;6.864;2023-03-01T03:49:06;14.77;;;5.32;;
74080;SDS011;62438;52.228;6.864;2023-03-01T03:51:08;12.32;;;4.93;;
74080;SDS011;62438;52.228;6.864;2023-03-01T03:53:11;13.80;;;5.57;;
74080;SDS011;62438;52.228;6.864;2023-03-01T03:55:12;13.30;;;4.43;;
74080;SDS011;62438;52.228;6.864;2023-03-01T03:57:12;14.32;;;5.45;;
74080;SDS011;62438;52.228;6.864;2023-03-01T03:59:13;13.68;;;5.15;;
74080;SDS011;62438;52.228;6.864;2023-03-01T04:01:13;12.23;;;4.90;;
74080;SDS011;62438;52.228;6.864;2023-03-01T04:03:14;13.48;;;4.63;;
74080;SDS011;62438;52.228;6.864;2023-03-01T04:05:17;15.00;;;5.38;;
74080;SDS011;62438;52.228;6.864;2023-03-01T04:07:22;13.95;;;5.13;;
74080;SDS011;62438;52.228;6.864;2023-03-01T04:09:22;13.32;;;5.28;;
74080;SDS011;62438;52.228;6.864;2023-03-01T04:11:23;12.45;;;5.30;;
74080;SDS011;62438;52.228;6.864;2023-03-01T04:13:26;13.50;;;5.18;;
74080;SDS011;62438;52.228;6.864;2023-03-01T04:15:26;15.68;;;5.30;;
74080;SDS011;62438;52.228;6.864;2023-03-01T04:17:27;12.65;;;5.20;;
74080;SDS011;62438;52.228;6.864;2023-03-01T04:19:28;16.42;;;5.32;;
74080;SDS011;62438;52.228;6.864;2023-03-01T04:21:28;11.43;;;4.20;;
74080;SDS011;62438;52.228;6.864;2023-03-01T04:23:28;16.95;;;5.15;;
74080;SDS011;62438;52.228;6.864;2023-03-01T04:25:29;14.20;;;5.68;;
74080;SDS011;62438;52.228;6.864;2023-03-01T04:27:29;14.65;;;4.88;;
74080;SDS011;62438;52.228;6.864;2023-03-01T04:29:30;11.75;;;4.82;;
74080;SDS011;62438;52.228;6.864;2023-03-01T04:31:30;13.98;;;4.43;;
74080;SDS011;62438;52.228;6.864;2023-03-01T04:33:30;12.70;;;5.13;;
74080;SDS011;62438;52.228;6.864;2023-03-01T04:35:31;14.63;;;5.10;;
74080;SDS011;62438;52.228;6.864;2023-03-01T04:37:32;11.95;;;4.70;;
74080;SDS011;62438;52.228;6.864;2023-03-01T04:39:33;11.95;;;4.72;;
74080;SDS011;62438;52.228;6.864;2023-03-01T04:41:33;11.38;;;5.15;;
74080;SDS011;62438;52.228;6.864;2023-03-01T04:43:33;10.60;;;4.63;;
74080;SDS011;62438;52.228;6.864;2023-03-01T04:45:34;12.80;;;4.85;;
74080;SDS011;62438;52.228;6.864;2023-03-01T04:47:35;12.60;;;4.70;;
74080;SDS011;62438;52.228;6.864;2023-03-01T04:49:38;12.88;;;4.65;;
74080;SDS011;62438;52.228;6.864;2023-03-01T04:51:38;19.75;;;5.30;;
74080;SDS011;62438;52.228;6.864;2023-03-01T04:53:39;13.18;;;5.40;;
74080;SDS011;62438;52.228;6.864;2023-03-01T04:55:40;12.90;;;5.07;;
74080;SDS011;62438;52.228;6.864;2023-03-01T04:57:41;14.32;;;5.40;;
74080;SDS011;62438;52.228;6.864;2023-03-01T04:59:41;12.82;;;5.03;;
74080;SDS011;62438;52.228;6.864;2023-03-01T05:01:42;17.38;;;6.70;;
74080;SDS011;62438;52.228;6.864;2023-03-01T05:03:43;17.23;;;6.80;;
74080;SDS011;62438;52.228;6.864;2023-03-01T05:05:47;13.85;;;6.07;;
74080;SDS011;62438;52.228;6.864;2023-03-01T05:07:54;14.38;;;5.55;;
74080;SDS011;62438;52.228;6.864;2023-03-01T05:09:56;12.90;;;4.82;;
74080;SDS011;62438;52.228;6.864;2023-03-01T05:11:56;13.75;;;4.70;;
74080;SDS011;62438;52.228;6.864;2023-03-01T05:13:56;12.90;;;4.70;;
74080;SDS011;62438;52.228;6.864;2023-03-01T05:15:58;13.85;;;5.57;;
74080;SDS011;62438;52.228;6.864;2023-03-01T05:18:00;13.13;;;5.50;;
74080;SDS011;62438;52.228;6.864;2023-03-01T05:20:00;15.82;;;4.47;;
74080;SDS011;62438;52.228;6.864;2023-03-01T05:22:02;12.93;;;4.88;;
74080;SDS011;62438;52.228;6.864;2023-03-01T05:24:05;13.13;;;4.80;;
74080;SDS011;62438;52.228;6.864;2023-03-01T05:26:10;11.63;;;4.88;;
74080;SDS011;62438;52.228;6.864;2023-03-01T05:28:12;13.13;;;5.35;;
74080;SDS011;62438;52.228;6.864;2023-03-01T05:30:14;12.82;;;5.30;;
74080;SDS011;62438;52.228;6.864;2023-03-01T05:32:14;11.80;;;4.85;;
74080;SDS011;62438;52.228;6.864;2023-03-01T05:34:15;11.05;;;4.35;;
74080;SDS011;62438;52.228;6.864;2023-03-01T05:36:19;12.63;;;4.68;;
74080;SDS011;62438;52.228;6.864;2023-03-01T05:38:20;11.88;;;5.07;;
74080;SDS011;62438;52.228;6.864;2023-03-01T05:40:21;13.45;;;4.72;;
74080;SDS011;62438;52.228;6.864;2023-03-01T05:42:24;13.68;;;5.35;;
74080;SDS011;62438;52.228;6.864;2023-03-01T05:44:24;13.15;;;5.20;;
74080;SDS011;62438;52.228;6.864;2023-03-01T05:46:25;10.57;;;4.43;;
74080;SDS011;62438;52.228;6.864;2023-03-01T05:48:25;14.52;;;5.18;;
74080;SDS011;62438;52.228;6.864;2023-03-01T05:50:27;14.30;;;5.05;;
74080;SDS011;62438;52.228;6.864;2023-03-01T05:52:32;11.88;;;5.35;;
74080;SDS011;62438;52.228;6.864;2023-03-01T05:54:32;13.18;;;4.65;;
74080;SDS011;62438;52.228;6.864;2023-03-01T05:56:33;11.52;;;4.68;;
74080;SDS011;62438;52.228;6.864;2023-03-01T05:58:34;12.63;;;4.93;;
74080;SDS011;62438;52.228;6.864;2023-03-01T06:00:34;13.60;;;5.63;;
74080;SDS011;62438;52.228;6.864;2023-03-01T06:02:35;14.23;;;5.28;;
74080;SDS011;62438;52.228;6.864;2023-03-01T06:04:36;12.82;;;4.78;;
74080;SDS011;62438;52.228;6.864;2023-03-01T06:06:36;13.13;;;5.22;;
74080;SDS011;62438;52.228;6.864;2023-03-01T06:08:37;11.88;;;4.93;;
74080;SDS011;62438;52.228;6.864;2023-03-01T06:10:38;14.35;;;5.22;;
74080;SDS011;62438;52.228;6.864;2023-03-01T06:12:40;13.73;;;5.50;;
74080;SDS011;62438;52.228;6.864;2023-03-01T06:14:41;13.98;;;5.28;;
74080;SDS011;62438;52.228;6.864;2023-03-01T06:16:41;15.45;;;4.90;;
74080;SDS011;62438;52.228;6.864;2023-03-01T06:18:42;12.93;;;4.68;;
74080;SDS011;62438;52.228;6.864;2023-03-01T06:20:42;11.00;;;4.65;;
74080;SDS011;62438;52.228;6.864;2023-03-01T06:22:43;12.00;;;4.75;;
74080;SDS011;62438;52.228;6.864;2023-03-01T06:24:44;12.35;;;4.97;;
74080;SDS011;62438;52.228;6.864;2023-03-01T06:26:45;11.45;;;4.68;;
74080;SDS011;62438;52.228;6.864;2023-03-01T06:28:45;12.77;;;5.07;;
74080;SDS011;62438;52.228;6.864;2023-03-01T06:30:46;14.93;;;5.43;;
74080;SDS011;62438;52.228;6.864;2023-03-01T06:32:46;11.82;;;4.60;;
74080;SDS011;62438;52.228;6.864;2023-03-01T06:34:46;13.13;;;4.57;;
74080;SDS011;62438;52.228;6.864;2023-03-01T06:36:47;14.68;;;5.55;;
74080;SDS011;62438;52.228;6.864;2023-03-01T06:38:47;12.45;;;5.35;;
74080;SDS011;62438;52.228;6.864;2023-03-01T06:40:51;13.95;;;5.35;;
74080;SDS011;62438;52.228;6.864;2023-03-01T06:42:54;13.38;;;5.65;;
74080;SDS011;62438;52.228;6.864;2023-03-01T06:44:54;14.80;;;6.75;;
74080;SDS011;62438;52.228;6.864;2023-03-01T06:46:55;13.40;;;5.80;;
74080;SDS011;62438;52.228;6.864;2023-03-01T06:48:55;14.70;;;5.40;;
74080;SDS011;62438;52.228;6.864;2023-03-01T06:50:58;16.67;;;5.70;;
74080;SDS011;62438;52.228;6.864;2023-03-01T06:52:59;14.10;;;5.90;;
74080;SDS011;62438;52.228;6.864;2023-03-01T06:55:00;17.17;;;6.65;;
74080;SDS011;62438;52.228;6.864;2023-03-01T06:57:00;14.25;;;6.35;;
74080;SDS011;62438;52.228;6.864;2023-03-01T06:59:01;17.15;;;6.63;;
74080;SDS011;62438;52.228;6.864;2023-03-01T07:01:09;18.05;;;6.35;;
74080;SDS011;62438;52.228;6.864;2023-03-01T07:03:10;18.15;;;6.28;;
74080;SDS011;62438;52.228;6.864;2023-03-01T07:05:10;14.43;;;5.78;;
74080;SDS011;62438;52.228;6.864;2023-03-01T07:07:10;16.02;;;5.57;;
74080;SDS011;62438;52.228;6.864;2023-03-01T07:09:11;16.17;;;6.13;;
74080;SDS011;62438;52.228;6.864;2023-03-01T07:11:12;14.43;;;6.05;;
74080;SDS011;62438;52.228;6.864;2023-03-01T07:13:12;15.50;;;6.68;;
74080;SDS011;62438;52.228;6.864;2023-03-01T07:15:13;17.15;;;7.00;;
74080;SDS011;62438;52.228;6.864;2023-03-01T07:17:14;18.30;;;7.22;;
74080;SDS011;62438;52.228;6.864;2023-03-01T07:19:15;17.17;;;6.75;;
74080;SDS011;62438;52.228;6.864;2023-03-01T07:21:15;15.38;;;7.15;;
74080;SDS011;62438;52.228;6.864;2023-03-01T07:23:16;15.50;;;6.45;;
74080;SDS011;62438;52.228;6.864;2023-03-01T07:25:17;16.70;;;7.05;;
74080;SDS011;62438;52.228;6.864;2023-03-01T07:27:17;16.33;;;6.15;;
74080;SDS011;62438;52.228;6.864;2023-03-01T07:29:18;14.23;;;6.25;;
74080;SDS011;62438;52.228;6.864;2023-03-01T07:31:18;18.38;;;6.38;;
74080;SDS011;62438;52.228;6.864;2023-03-01T07:33:19;15.00;;;6.45;;
74080;SDS011;62438;52.228;6.864;2023-03-01T07:35:20;16.50;;;6.57;;
74080;SDS011;62438;52.228;6.864;2023-03-01T07:37:21;15.23;;;6.47;;
74080;SDS011;62438;52.228;6.864;2023-03-01T07:39:21;13.68;;;5.55;;
74080;SDS011;62438;52.228;6.864;2023-03-01T07:41:23;12.90;;;5.90;;
74080;SDS011;62438;52.228;6.864;2023-03-01T07:43:23;11.18;;;4.63;;
74080;SDS011;62438;52.228;6.864;2023-03-01T07:45:24;12.10;;;4.65;;
74080;SDS011;62438;52.228;6.864;2023-03-01T07:47:25;9.52;;;4.50;;
74080;SDS011;62438;52.228;6.864;2023-03-01T07:49:26;11.93;;;4.18;;
74080;SDS011;62438;52.228;6.864;2023-03-01T07:51:26;15.00;;;4.63;;
74080;SDS011;62438;52.228;6.864;2023-03-01T07:53:27;10.52;;;4.40;;
74080;SDS011;62438;52.228;6.864;2023-03-01T07:55:27;11.25;;;4.43;;
74080;SDS011;62438;52.228;6.864;2023-03-01T07:57:28;11.63;;;4.57;;
74080;SDS011;62438;52.228;6.864;2023-03-01T07:59:28;13.45;;;4.60;;
74080;SDS011;62438;52.228;6.864;2023-03-01T08:01:29;14.07;;;4.68;;
74080;SDS011;62438;52.228;6.864;2023-03-01T08:03:30;11.30;;;4.57;;
74080;SDS011;62438;52.228;6.864;2023-03-01T08:05:30;12.07;;;4.22;;
74080;SDS011;62438;52.228;6.864;2023-03-01T08:07:30;10.75;;;3.85;;
74080;SDS011;62438;52.228;6.864;2023-03-01T08:09:31;10.80;;;4.53;;
74080;SDS011;62438;52.228;6.864;2023-03-01T08:11:31;10.40;;;4.18;;
74080;SDS011;62438;52.228;6.864;2023-03-01T08:13:32;11.00;;;4.13;;
74080;SDS011;62438;52.228;6.864;2023-03-01T08:15:33;11.38;;;4.10;;
74080;SDS011;62438;52.228;6.864;2023-03-01T08:17:33;10.80;;;4.38;;
74080;SDS011;62438;52.228;6.864;2023-03-01T08:19:33;11.60;;;4.45;;
74080;SDS011;62438;52.228;6.864;2023-03-01T08:21:34;10.93;;;4.10;;
74080;SDS011;62438;52.228;6.864;2023-03-01T08:23:35;11.65;;;4.45;;
74080;SDS011;62438;52.228;6.864;2023-03-01T08:25:36;10.40;;;3.90;;
74080;SDS011;62438;52.228;6.864;2023-03-01T08:27:37;9.45;;;3.80;;
74080;SDS011;62438;52.228;6.864;2023-03-01T08:29:37;8.45;;;2.97;;
74080;SDS011;62438;52.228;6.864;2023-03-01T08:31:39;9.23;;;3.65;;
74080;SDS011;62438;52.228;6.864;2023-03-01T08:33:40;9.23;;;3.80;;
74080;SDS011;62438;52.228;6.864;2023-03-01T08:35:41;8.63;;;3.33;;
74080;SDS011;62438;52.228;6.864;2023-03-01T08:37:41;9.68;;;3.47;;
74080;SDS011;62438;52.228;6.864;2023-03-01T08:39:42;8.52;;;3.30;;
74080;SDS011;62438;52.228;6.864;2023-03-01T08:41:42;9.65;;;3.50;;
74080;SDS011;62438;52.228;6.864;2023-03-01T08:43:43;9.25;;;3.10;;
74080;SDS011;62438;52.228;6.864;2023-03-01T08:45:43;9.10;;;3.28;;
74080;SDS011;62438;52.228;6.864;2023-03-01T08:47:44;8.75;;;3.15;;
74080;SDS011;62438;52.228;6.864;2023-03-01T08:49:45;8.63;;;3.40;;
74080;SDS011;62438;52.228;6.864;2023-03-01T08:51:46;10.18;;;3.95;;
74080;SDS011;62438;52.228;6.864;2023-03-01T08:53:47;8.98;;;3.17;;
74080;SDS011;62438;52.228;6.864;2023-03-01T08:55:47;10.02;;;3.65;;
74080;SDS011;62438;52.228;6.864;2023-03-01T08:57:48;8.27;;;3.13;;
74080;SDS011;62438;52.228;6.864;2023-03-01T08:59:48;9.00;;;3.45;;
74080;SDS011;62438;52.228;6.864;2023-03-01T09:01:48;8.35;;;3.13;;
74080;SDS011;62438;52.228;6.864;2023-03-01T09:03:49;10.10;;;3.42;;
74080;SDS011;62438;52.228;6.864;2023-03-01T09:05:49;9.70;;;3.53;;
74080;SDS011;62438;52.228;6.864;2023-03-01T09:07:51;8.45;;;3.00;;
74080;SDS011;62438;52.228;6.864;2023-03-01T09:09:51;8.35;;;2.88;;
74080;SDS011;62438;52.228;6.864;2023-03-01T09:11:53;13.20;;;3.42;;
74080;SDS011;62438;52.228;6.864;2023-03-01T09:13:54;8.55;;;2.90;;
74080;SDS011;62438;52.228;6.864;2023-03-01T09:15:54;8.75;;;3.30;;
74080;SDS011;62438;52.228;6.864;2023-03-01T09:17:55;8.80;;;3.42;;
74080;SDS011;62438;52.228;6.864;2023-03-01T09:19:55;10.18;;;3.55;;
74080;SDS011;62438;52.228;6.864;2023-03-01T09:21:55;7.82;;;3.25;;
74080;SDS011;62438;52.228;6.864;2023-03-01T09:23:58;9.80;;;3.42;;
74080;SDS011;62438;52.228;6.864;2023-03-01T09:25:58;8.73;;;3.38;;
74080;SDS011;62438;52.228;6.864;2023-03-01T09:27:59;9.30;;;3.35;;
74080;SDS011;62438;52.228;6.864;2023-03-01T09:29:59;8.30;;;3.10;;
74080;SDS011;62438;52.228;6.864;2023-03-01T09:31:59;10.88;;;3.35;;
74080;SDS011;62438;52.228;6.864;2023-03-01T09:34:00;9.43;;;3.22;;
74080;SDS011;62438;52.228;6.864;2023-03-01T09:36:02;10.05;;;3.22;;
74080;SDS011;62438;52.228;6.864;2023-03-01T09:38:04;7.72;;;3.15;;
74080;SDS011;62438;52.228;6.864;2023-03-01T09:40:05;8.57;;;3.42;;
74080;SDS011;62438;52.228;6.864;2023-03-01T09:42:10;9.50;;;3.30;;
74080;SDS011;62438;52.228;6.864;2023-03-01T09:44:21;11.45;;;3.65;;
74080;SDS011;62438;52.228;6.864;2023-03-01T09:46:40;7.68;;;2.72;;
74080;SDS011;62438;52.228;6.864;2023-03-01T09:48:44;8.45;;;3.08;;
74080;SDS011;62438;52.228;6.864;2023-03-01T09:50:50;7.43;;;2.38;;
74080;SDS011;62438;52.228;6.864;2023-03-01T09:53:01;8.80;;;2.83;;
74080;SDS011;62438;52.228;6.864;2023-03-01T09:55:08;8.07;;;2.78;;
74080;SDS011;62438;52.228;6.864;2023-03-01T09:59:23;7.63;;;2.38;;
74080;SDS011;62438;52.228;6.864;2023-03-01T10:01:29;11.65;;;3.28;;
74080;SDS011;62438;52.228;6.864;2023-03-01T10:03:36;8.32;;;3.17;;
74080;SDS011;62438;52.228;6.864;2023-03-01T10:05:50;10.32;;;3.10;;
74080;SDS011;62438;52.228;6.864;2023-03-01T10:08:14;9.13;;;2.92;;
74080;SDS011;62438;52.228;6.864;2023-03-01T10:10:34;7.43;;;2.80;;
74080;SDS011;62438;52.228;6.864;2023-03-01T10:12:39;7.97;;;3.00;;
74080;SDS011;62438;52.228;6.864;2023-03-01T10:17:03;9.35;;;3.10;;
74080;SDS011;62438;52.228;6.864;2023-03-01T10:19:11;7.80;;;3.13;;
74080;SDS011;62438;52.228;6.864;2023-03-01T10:21:17;7.97;;;3.00;;
74080;SDS011;62438;52.228;6.864;2023-03-01T10:29:54;8.43;;;2.75;;
74080;SDS011;62438;52.228;6.864;2023-03-01T10:32:02;9.27;;;3.30;;
74080;SDS011;62438;52.228;6.864;2023-03-01T10:34:08;8.95;;;3.22;;
74080;SDS011;62438;52.228;6.864;2023-03-01T10:36:13;8.10;;;2.95;;
74080;SDS011;62438;52.228;6.864;2023-03-01T10:38:14;8.88;;;3.22;;
74080;SDS011;62438;52.228;6.864;2023-03-01T10:40:16;10.00;;;3.13;;
74080;SDS011;62438;52.228;6.864;2023-03-01T10:42:19;7.95;;;3.25;;
74080;SDS011;62438;52.228;6.864;2023-03-01T10:46:45;10.88;;;3.05;;
74080;SDS011;62438;52.228;6.864;2023-03-01T10:49:17;8.80;;;3.00;;
74080;SDS011;62438;52.228;6.864;2023-03-01T10:51:20;8.75;;;2.83;;
74080;SDS011;62438;52.228;6.864;2023-03-01T10:57:37;7.95;;;3.25;;
74080;SDS011;62438;52.228;6.864;2023-03-01T10:59:40;7.45;;;3.10;;
74080;SDS011;62438;52.228;6.864;2023-03-01T11:01:40;10.18;;;3.45;;
74080;SDS011;62438;52.228;6.864;2023-03-01T11:03:41;10.40;;;3.53;;
74080;SDS011;62438;52.228;6.864;2023-03-01T11:08:02;8.63;;;2.90;;
74080;SDS011;62438;52.228;6.864;2023-03-01T11:10:10;9.18;;;3.05;;
74080;SDS011;62438;52.228;6.864;2023-03-01T11:14:17;7.85;;;2.53;;
74080;SDS011;62438;52.228;6.864;2023-03-01T11:17:21;10.23;;;3.00;;
74080;SDS011;62438;52.228;6.864;2023-03-01T11:21:09;8.90;;;3.35;;
74080;SDS011;62438;52.228;6.864;2023-03-01T11:23:10;8.10;;;3.20;;
74080;SDS011;62438;52.228;6.864;2023-03-01T11:25:13;9.73;;;3.33;;
74080;SDS011;62438;52.228;6.864;2023-03-01T11:29:38;9.25;;;3.13;;
74080;SDS011;62438;52.228;6.864;2023-03-01T11:31:44;8.40;;;3.28;;
74080;SDS011;62438;52.228;6.864;2023-03-01T11:38:30;11.98;;;2.90;;
74080;SDS011;62438;52.228;6.864;2023-03-01T11:40:37;8.55;;;2.80;;
74080;SDS011;62438;52.228;6.864;2023-03-01T11:42:46;8.48;;;2.92;;
74080;SDS011;62438;52.228;6.864;2023-03-01T11:44:53;8.10;;;3.20;;
74080;SDS011;62438;52.228;6.864;2023-03-01T11:56:50;8.38;;;3.10;;
74080;SDS011;62438;52.228;6.864;2023-03-01T12:01:09;8.80;;;3.20;;
74080;SDS011;62438;52.228;6.864;2023-03-01T12:03:28;10.98;;;3.38;;
74080;SDS011;62438;52.228;6.864;2023-03-01T12:26:14;6.90;;;2.22;;
74080;SDS011;62438;52.228;6.864;2023-03-01T12:28:24;7.07;;;2.53;;
74080;SDS011;62438;52.228;6.864;2023-03-01T12:37:23;8.15;;;3.05;;
74080;SDS011;62438;52.228;6.864;2023-03-01T12:42:02;7.70;;;2.75;;
74080;SDS011;62438;52.228;6.864;2023-03-01T12:44:32;9.95;;;3.00;;
74080;SDS011;62438;52.228;6.864;2023-03-01T12:47:01;8.10;;;2.88;;
74080;SDS011;62438;52.228;6.864;2023-03-01T12:51:14;7.78;;;2.80;;
74080;SDS011;62438;52.228;6.864;2023-03-01T12:55:33;7.85;;;2.63;;
74080;SDS011;62438;52.228;6.864;2023-03-01T12:57:46;8.82;;;2.78;;
74080;SDS011;62438;52.228;6.864;2023-03-01T13:00:03;6.93;;;2.38;;
74080;SDS011;62438;52.228;6.864;2023-03-01T13:02:33;8.10;;;2.78;;
74080;SDS011;62438;52.228;6.864;2023-03-01T13:08:58;5.68;;;2.00;;
74080;SDS011;62438;52.228;6.864;2023-03-01T13:11:14;6.00;;;2.03;;
74080;SDS011;62438;52.228;6.864;2023-03-01T13:13:22;6.63;;;2.17;;
74080;SDS011;62438;52.228;6.864;2023-03-01T13:15:25;6.43;;;2.10;;
74080;SDS011;62438;52.228;6.864;2023-03-01T13:17:30;6.95;;;2.25;;
74080;SDS011;62438;52.228;6.864;2023-03-01T13:19:31;6.63;;;2.25;;
74080;SDS011;62438;52.228;6.864;2023-03-01T13:21:32;6.18;;;2.38;;
74080;SDS011;62438;52.228;6.864;2023-03-01T13:23:34;6.72;;;2.50;;
74080;SDS011;62438;52.228;6.864;2023-03-01T13:26:21;7.40;;;2.03;;
74080;SDS011;62438;52.228;6.864;2023-03-01T13:32:35;5.88;;;2.10;;
74080;SDS011;62438;52.228;6.864;2023-03-01T13:34:40;6.25;;;2.28;;
74080;SDS011;62438;52.228;6.864;2023-03-01T13:36:48;7.53;;;2.53;;
74080;SDS011;62438;52.228;6.864;2023-03-01T13:40:57;6.57;;;2.20;;
74080;SDS011;62438;52.228;6.864;2023-03-01T13:42:58;7.50;;;2.58;;
74080;SDS011;62438;52.228;6.864;2023-03-01T13:45:38;8.20;;;2.78;;
74080;SDS011;62438;52.228;6.864;2023-03-01T13:47:41;6.72;;;2.13;;
74080;SDS011;62438;52.228;6.864;2023-03-01T13:49:47;6.82;;;2.08;;
74080;SDS011;62438;52.228;6.864;2023-03-01T13:51:51;7.28;;;2.17;;
74080;SDS011;62438;52.228;6.864;2023-03-01T13:53:52;7.28;;;2.50;;